createdAt,value
2019-03-13T00:00:22.649Z,7.00
2019-03-13T00:02:51.288Z,7.00
2019-03-13T00:05:20.004Z,7.10
2019-03-13T00:07:48.725Z,7.10
2019-03-13T00:10:17.482Z,7.20
2019-03-13T00:12:46.201Z,7.20
2019-03-13T00:15:15.793Z,7.20
2019-03-13T00:17:44.466Z,7.20
2019-03-13T00:20:13.357Z,7.20
2019-03-13T00:22:41.961Z,7.20
2019-03-13T00:25:10.754Z,7.30
2019-03-13T00:27:39.358Z,7.20
2019-03-13T00:30:10.816Z,7.20
2019-03-13T00:32:39.476Z,7.30
2019-03-13T00:35:10.031Z,7.30
2019-03-13T00:37:38.710Z,7.30
2019-03-13T00:40:11.035Z,7.30
2019-03-13T00:42:39.637Z,7.40
2019-03-13T00:45:11.302Z,7.40
2019-03-13T00:47:39.960Z,7.40
2019-03-13T00:50:10.692Z,7.40
2019-03-13T00:52:39.383Z,7.40
2019-03-13T00:55:08.145Z,7.50
2019-03-13T00:57:36.805Z,7.50
2019-03-13T01:00:09.468Z,7.50
2019-03-13T01:02:38.130Z,7.50
2019-03-13T01:05:08.450Z,7.60
2019-03-13T01:07:37.059Z,7.60
2019-03-13T01:10:08.713Z,7.60
2019-03-13T01:12:37.367Z,7.60
2019-03-13T01:15:08.731Z,7.60
2019-03-13T01:17:38.938Z,7.60
2019-03-13T01:20:09.166Z,7.60
2019-03-13T01:22:37.771Z,7.60
2019-03-13T01:25:09.336Z,7.60
2019-03-13T01:27:37.985Z,7.60
2019-03-13T01:30:12.464Z,7.60
2019-03-13T01:32:40.205Z,7.60
2019-03-13T01:35:08.205Z,7.60
2019-03-13T01:37:36.899Z,7.70
2019-03-13T01:40:09.460Z,7.70
2019-03-13T01:42:38.116Z,7.70
2019-03-13T01:45:09.780Z,7.70
2019-03-13T01:47:38.381Z,7.70
2019-03-13T01:50:10.692Z,7.70
2019-03-13T01:52:39.334Z,7.70
2019-03-13T01:55:09.802Z,7.70
2019-03-13T01:57:38.401Z,7.70
2019-03-13T02:00:13.169Z,7.80
2019-03-13T02:02:41.770Z,7.80
2019-03-13T02:05:10.573Z,7.80
2019-03-13T02:07:39.179Z,8.00
2019-03-13T02:10:11.255Z,8.00
2019-03-13T02:12:39.985Z,8.10
2019-03-13T02:15:12.599Z,8.00
2019-03-13T02:17:41.250Z,7.80
2019-03-13T02:20:11.015Z,7.70
2019-03-13T02:22:39.679Z,7.70
2019-03-13T02:25:12.246Z,7.70
2019-03-13T02:27:40.933Z,7.70
2019-03-13T02:30:18.619Z,7.70
2019-03-13T02:32:47.285Z,7.70
2019-03-13T02:35:15.938Z,7.70
2019-03-13T02:37:44.548Z,7.60
2019-03-13T02:40:15.039Z,7.60
2019-03-13T02:42:43.732Z,7.50
2019-03-13T02:45:14.191Z,7.40
2019-03-13T02:47:42.863Z,7.50
2019-03-13T02:50:16.686Z,7.40
2019-03-13T02:52:45.310Z,7.50
2019-03-13T02:55:14.134Z,7.50
2019-03-13T02:57:42.914Z,7.40
2019-03-13T03:00:18.785Z,7.30
2019-03-13T03:02:47.459Z,7.30
2019-03-13T03:05:16.489Z,7.10
2019-03-13T03:07:45.093Z,7.00
2019-03-13T03:10:14.023Z,6.40
2019-03-13T03:12:42.628Z,6.30
2019-03-13T03:15:15.456Z,6.10
2019-03-13T03:17:44.059Z,6.00
2019-03-13T03:20:16.427Z,5.90
2019-03-13T03:22:45.102Z,5.90
2019-03-13T03:25:16.156Z,5.90
2019-03-13T03:27:44.763Z,6.00
2019-03-13T03:30:20.498Z,6.00
2019-03-13T03:32:49.278Z,6.00
2019-03-13T03:35:17.939Z,6.00
2019-03-13T03:37:46.621Z,6.00
2019-03-13T04:28:00.654Z,6.10
2019-03-13T04:30:29.439Z,6.10
2019-03-13T04:32:58.100Z,6.10
2019-03-13T04:35:26.717Z,6.10
2019-03-13T04:37:55.317Z,6.10
2019-03-13T04:40:26.327Z,6.10
2019-03-13T04:42:54.931Z,6.20
2019-03-13T04:45:23.588Z,6.10
2019-03-13T04:47:52.196Z,6.10
2019-03-13T04:50:20.851Z,6.20
2019-03-13T04:52:49.522Z,6.20
2019-03-13T04:55:18.310Z,6.20
2019-03-13T04:57:46.914Z,6.20
2019-03-13T05:00:19.938Z,6.20
2019-03-13T05:02:48.540Z,6.20
2019-03-13T05:05:40.599Z,6.20
2019-03-13T05:08:21.713Z,6.20
2019-03-13T05:10:50.373Z,6.20
2019-03-13T05:13:18.977Z,6.20
2019-03-13T05:15:47.642Z,6.20
2019-03-13T05:18:16.240Z,6.30
2019-03-13T05:20:44.972Z,6.30
2019-03-13T05:23:13.575Z,6.30
2019-03-13T05:25:42.236Z,6.20
2019-03-13T05:28:10.839Z,6.20
2019-03-13T05:30:39.498Z,6.20
2019-03-13T05:33:08.101Z,6.20
2019-03-13T05:35:36.707Z,6.20
2019-03-13T05:38:05.438Z,6.20
2019-03-13T05:40:34.058Z,6.20
2019-03-13T05:43:02.701Z,6.20
2019-03-13T05:45:31.355Z,6.20
2019-03-13T05:47:59.958Z,6.20
2019-03-13T05:50:31.413Z,6.20
2019-03-13T05:52:58.961Z,6.20
2019-03-13T05:55:27.606Z,6.10
2019-03-13T05:57:56.251Z,6.10
2019-03-13T06:00:24.904Z,6.10
2019-03-13T06:02:53.575Z,5.90
2019-03-13T06:05:22.179Z,5.90
2019-03-13T06:07:50.783Z,5.90
2019-03-13T06:10:19.439Z,5.90
2019-03-13T06:12:48.047Z,5.80
2019-03-13T06:15:16.822Z,5.80
2019-03-13T06:17:45.474Z,5.70
2019-03-13T06:20:16.184Z,5.80
2019-03-13T06:22:44.858Z,5.70
2019-03-13T06:25:14.281Z,5.80
2019-03-13T06:27:46.039Z,5.80
2019-03-13T06:30:18.917Z,5.70
2019-03-13T06:32:47.576Z,5.70
2019-03-13T06:35:16.354Z,5.70
2019-03-13T06:37:45.233Z,5.70
2019-03-13T06:40:22.688Z,5.70
2019-03-13T06:42:51.345Z,5.70
2019-03-13T06:45:23.060Z,5.70
2019-03-13T06:47:50.380Z,5.80
2019-03-13T06:50:22.422Z,5.80
2019-03-13T06:52:51.089Z,5.90
2019-03-13T06:55:19.691Z,5.90
2019-03-13T06:57:48.349Z,6.00
2019-03-13T07:00:26.042Z,6.10
2019-03-13T07:02:54.696Z,6.30
2019-03-13T07:05:23.307Z,6.40
2019-03-13T07:07:51.964Z,6.50
2019-03-13T07:10:20.573Z,6.70
2019-03-13T07:12:49.230Z,6.90
2019-03-13T07:15:17.838Z,6.90
2019-03-13T07:17:46.568Z,6.90
2019-03-13T07:20:15.175Z,6.80
2019-03-13T07:22:43.839Z,7.00
2019-03-13T07:25:12.560Z,7.10
2019-03-13T07:27:41.695Z,7.10
2019-03-13T07:30:11.082Z,7.10
2019-03-13T07:32:39.689Z,7.20
2019-03-13T07:35:09.122Z,7.20
2019-03-13T07:37:37.734Z,7.30
2019-03-13T07:40:09.202Z,7.30
2019-03-13T07:42:39.233Z,7.20
2019-03-13T07:45:10.403Z,7.10
2019-03-13T07:47:39.850Z,6.90
2019-03-13T07:50:09.917Z,6.90
2019-03-13T07:52:38.577Z,7.00
2019-03-13T07:55:08.194Z,7.10
2019-03-13T07:57:36.948Z,7.20
2019-03-13T08:00:10.193Z,7.30
2019-03-13T08:02:38.851Z,7.30
2019-03-13T08:05:09.770Z,7.40
2019-03-13T08:07:38.519Z,7.20
2019-03-13T08:10:11.543Z,7.20
2019-03-13T08:12:40.197Z,7.20
2019-03-13T08:15:12.521Z,7.30
2019-03-13T08:17:41.202Z,7.30
2019-03-13T08:20:10.623Z,7.40
2019-03-13T08:22:39.310Z,7.30
2019-03-13T08:25:22.782Z,7.40
2019-03-13T08:27:51.438Z,7.60
2019-03-13T08:30:20.655Z,7.60
2019-03-13T08:32:49.394Z,7.50
2019-03-13T08:35:18.067Z,7.70
2019-03-13T08:37:46.678Z,7.70
2019-03-13T08:40:15.299Z,7.90
2019-03-13T08:42:43.955Z,8.00
2019-03-13T08:45:13.797Z,8.20
2019-03-13T08:47:42.538Z,8.30
2019-03-13T08:50:11.785Z,8.30
2019-03-13T08:52:40.394Z,8.30
2019-03-13T08:55:09.117Z,8.40
2019-03-13T08:57:37.778Z,8.40
2019-03-13T09:00:15.031Z,8.60
2019-03-13T09:02:43.699Z,8.60
2019-03-13T09:05:13.079Z,8.70
2019-03-13T09:07:41.757Z,8.90
2019-03-13T09:10:15.611Z,9.00
2019-03-13T09:12:44.263Z,8.90
2019-03-13T09:15:13.085Z,8.80
2019-03-13T09:17:41.748Z,8.80
2019-03-13T09:20:10.361Z,9.00
2019-03-13T09:22:39.022Z,9.10
2019-03-13T09:25:12.391Z,9.10
2019-03-13T09:27:40.187Z,9.10
2019-03-13T09:30:13.011Z,8.90
2019-03-13T09:32:41.665Z,8.70
2019-03-13T09:35:10.346Z,8.80
2019-03-13T09:37:38.957Z,8.60
2019-03-13T09:40:10.495Z,8.80
2019-03-13T09:42:39.226Z,8.80
2019-03-13T09:45:10.394Z,8.80
2019-03-13T09:47:39.009Z,8.80
2019-03-13T09:50:10.643Z,9.00
2019-03-13T09:52:39.359Z,9.10
2019-03-13T09:55:10.598Z,9.20
2019-03-13T09:57:39.208Z,9.40
2019-03-13T10:00:13.790Z,9.60
2019-03-13T10:02:42.446Z,9.50
2019-03-13T10:05:11.178Z,9.50
2019-03-13T10:07:39.791Z,9.30
2019-03-13T10:10:08.993Z,9.70
2019-03-13T10:12:37.654Z,10.00
2019-03-13T10:15:07.674Z,10.20
2019-03-13T10:17:36.338Z,10.20
2019-03-13T10:20:09.070Z,10.20
2019-03-13T10:22:37.725Z,9.80
2019-03-13T10:25:07.142Z,9.80
2019-03-13T10:27:35.812Z,9.70
2019-03-13T10:30:11.363Z,9.80
2019-03-13T10:32:39.976Z,9.70
2019-03-13T10:35:08.659Z,10.00
2019-03-13T10:37:37.321Z,10.00
2019-03-13T10:40:09.195Z,10.00
2019-03-13T10:42:37.813Z,10.00
2019-03-13T10:45:08.691Z,9.80
2019-03-13T10:47:37.345Z,9.90
2019-03-13T10:50:10.591Z,10.10
2019-03-13T10:52:39.253Z,10.20
2019-03-13T10:55:10.170Z,10.40
2019-03-13T10:57:38.834Z,10.30
2019-03-13T11:00:15.052Z,10.00
2019-03-13T11:02:43.721Z,10.00
2019-03-13T11:05:12.483Z,9.90
2019-03-13T11:07:41.155Z,9.90
2019-03-13T11:10:10.815Z,10.10
2019-03-13T11:12:39.475Z,10.10
2019-03-13T11:15:10.749Z,10.00
2019-03-13T11:17:39.436Z,10.20
2019-03-13T11:20:09.755Z,10.00
2019-03-13T11:22:39.646Z,9.90
2019-03-13T11:25:09.658Z,10.00
2019-03-13T11:27:38.889Z,9.90
2019-03-13T11:30:12.582Z,9.90
2019-03-13T11:32:42.145Z,9.90
2019-03-13T11:35:12.230Z,10.10
2019-03-13T11:37:41.895Z,10.30
2019-03-13T11:40:14.188Z,10.40
2019-03-13T11:42:42.902Z,10.20
2019-03-13T11:45:11.633Z,10.20
2019-03-13T11:47:42.650Z,10.20
2019-03-13T11:50:12.532Z,10.50
2019-03-13T11:52:41.210Z,10.80
2019-03-13T11:55:10.915Z,10.70
2019-03-13T11:57:40.447Z,10.90
2019-03-13T12:00:14.053Z,11.10
2019-03-13T12:02:43.557Z,11.20
2019-03-13T12:05:13.801Z,11.10
2019-03-13T12:07:44.707Z,11.00
2019-03-13T12:10:14.359Z,10.90
2019-03-13T12:12:44.766Z,10.80
2019-03-13T12:15:14.567Z,10.80
2019-03-13T12:17:44.166Z,10.90
2019-03-13T12:20:13.910Z,10.90
2019-03-13T12:22:44.409Z,10.80
2019-03-13T12:25:14.024Z,10.90
2019-03-13T12:27:43.823Z,10.70
2019-03-13T12:30:15.419Z,10.70
2019-03-13T12:32:46.328Z,10.50
2019-03-13T12:35:16.012Z,10.60
2019-03-13T12:37:45.544Z,10.50
2019-03-13T12:40:15.265Z,10.50
2019-03-13T12:42:45.281Z,10.40
2019-03-13T12:45:15.788Z,10.30
2019-03-13T12:47:45.500Z,10.30
2019-03-13T12:50:15.173Z,10.30
2019-03-13T12:52:45.439Z,10.20
2019-03-13T12:55:14.709Z,10.20
2019-03-13T12:57:45.877Z,10.00
2019-03-13T13:00:21.611Z,9.90
2019-03-13T13:02:50.887Z,10.00
2019-03-13T13:08:16.322Z,9.80
2019-03-13T13:10:43.858Z,9.80
2019-03-13T13:13:19.355Z,9.90
2019-03-13T13:15:51.295Z,9.90
2019-03-13T13:18:22.132Z,10.00
2019-03-13T13:20:56.507Z,10.10
2019-03-13T13:23:25.159Z,9.90
2019-03-13T13:25:53.773Z,10.00
2019-03-13T13:28:22.386Z,9.80
2019-03-13T13:30:51.041Z,10.00
2019-03-13T13:33:19.653Z,10.10
2019-03-13T13:35:49.334Z,10.20
2019-03-13T13:38:18.629Z,10.30
2019-03-13T13:40:50.561Z,10.30
2019-03-13T13:43:19.265Z,10.20
2019-03-13T13:45:52.076Z,10.40
2019-03-13T13:48:20.686Z,10.50
2019-03-13T13:50:49.353Z,10.50
2019-03-13T13:53:18.015Z,10.50
2019-03-13T13:55:46.676Z,10.60
2019-03-13T13:58:15.332Z,10.60
2019-03-13T14:00:43.990Z,10.40
2019-03-13T14:03:12.655Z,10.30
2019-03-13T14:05:41.336Z,10.20
2019-03-13T14:08:10.109Z,10.20
2019-03-13T14:10:38.830Z,10.20
2019-03-13T14:13:07.447Z,10.20
2019-03-13T14:15:36.165Z,10.20
2019-03-13T14:18:04.925Z,10.30
2019-03-13T14:20:33.531Z,10.30
2019-03-13T14:23:02.192Z,10.20
2019-03-13T14:25:30.799Z,10.40
2019-03-13T14:27:59.493Z,10.40
2019-03-13T14:30:28.155Z,10.30
2019-03-13T14:32:56.842Z,10.30
2019-03-13T14:35:25.499Z,10.30
2019-03-13T14:37:54.163Z,10.40
2019-03-13T14:40:22.768Z,10.50
2019-03-13T14:42:51.427Z,10.50
2019-03-13T14:45:20.677Z,10.60
2019-03-13T14:47:49.427Z,10.50
2019-03-13T14:50:20.299Z,10.40
2019-03-13T14:52:48.916Z,10.30
2019-03-13T14:55:18.486Z,10.40
2019-03-13T14:57:47.096Z,10.30
2019-03-13T15:00:23.870Z,10.20
2019-03-13T15:02:52.878Z,10.20
2019-03-13T15:05:21.490Z,10.20
2019-03-13T15:07:50.147Z,10.20
2019-03-13T15:10:22.419Z,10.20
2019-03-13T15:12:51.084Z,10.20
2019-03-13T15:15:21.300Z,10.10
2019-03-13T15:17:52.970Z,10.10
2019-03-13T15:20:27.795Z,10.10
2019-03-13T15:22:56.597Z,10.10
2019-03-13T15:25:25.214Z,10.10
2019-03-13T15:27:53.874Z,10.00
2019-03-13T15:30:27.509Z,9.90
2019-03-13T15:32:56.327Z,9.90
2019-03-13T15:35:25.249Z,9.90
2019-03-13T15:37:53.974Z,9.80
2019-03-13T15:40:22.585Z,9.70
2019-03-13T15:42:51.617Z,9.80
2019-03-13T15:45:30.270Z,9.70
2019-03-13T15:47:59.024Z,9.70
2019-03-13T15:50:27.708Z,9.70
2019-03-13T15:52:56.429Z,9.70
2019-03-13T15:55:25.158Z,9.70
2019-03-13T15:57:53.891Z,9.70
2019-03-13T16:00:26.419Z,9.60
2019-03-13T16:02:56.079Z,9.60
2019-03-13T16:05:24.940Z,9.60
2019-03-13T16:07:53.678Z,9.50
2019-03-13T16:10:22.649Z,9.50
2019-03-13T16:12:51.279Z,9.50
2019-03-13T16:15:27.507Z,9.50
2019-03-13T16:17:56.162Z,9.50
2019-03-13T16:20:24.897Z,9.50
2019-03-13T16:22:53.504Z,9.50
2019-03-13T16:25:22.221Z,9.50
2019-03-13T16:27:50.908Z,9.50
2019-03-13T16:30:25.108Z,9.50
2019-03-13T16:32:53.771Z,9.50
2019-03-13T16:35:22.594Z,9.50
2019-03-13T16:37:51.204Z,9.40
2019-03-13T16:40:20.821Z,9.40
2019-03-13T16:42:49.594Z,9.40
2019-03-13T16:45:22.264Z,9.40
2019-03-13T16:47:51.048Z,9.40
2019-03-13T16:50:35.406Z,9.40
2019-03-13T16:53:04.393Z,9.40
2019-03-13T16:55:33.067Z,9.40
2019-03-13T16:58:01.798Z,9.30
2019-03-13T17:00:32.988Z,9.30
2019-03-13T17:03:01.917Z,9.30
2019-03-13T17:05:30.574Z,9.30
2019-03-13T17:07:59.391Z,9.30
2019-03-13T17:10:29.312Z,9.30
2019-03-13T17:12:58.237Z,9.30
2019-03-13T17:15:27.682Z,9.30
2019-03-13T17:17:56.359Z,9.30
2019-03-13T17:20:41.105Z,9.20
2019-03-13T17:23:09.769Z,9.20
2019-03-13T17:25:38.412Z,9.20
2019-03-13T17:28:07.194Z,9.30
2019-03-13T17:30:35.851Z,9.20
2019-03-13T17:33:04.670Z,9.20
2019-03-13T17:35:33.345Z,9.20
2019-03-13T17:38:02.026Z,9.20
2019-03-13T17:40:34.376Z,9.20
2019-03-13T17:43:03.155Z,9.20
2019-03-13T17:45:31.821Z,9.20
2019-03-13T17:48:00.427Z,9.20
2019-03-13T17:50:29.229Z,9.10
2019-03-13T17:52:57.837Z,9.10
2019-03-13T17:55:27.549Z,9.10
2019-03-13T17:57:56.212Z,9.10
2019-03-13T18:00:28.207Z,8.90
2019-03-13T18:02:57.098Z,8.90
2019-03-13T18:05:25.782Z,8.80
2019-03-13T18:07:54.435Z,8.80
2019-03-13T18:10:24.164Z,8.80
2019-03-13T18:12:53.927Z,8.80
2019-03-13T18:15:23.865Z,8.90
2019-03-13T18:17:53.285Z,8.90
2019-03-13T18:20:23.801Z,8.90
2019-03-13T18:22:53.804Z,8.90
2019-03-13T18:25:24.941Z,8.80
2019-03-13T18:27:53.679Z,8.90
2019-03-13T18:30:32.674Z,8.90
2019-03-13T18:33:01.374Z,9.00
2019-03-13T18:35:31.043Z,8.80
2019-03-13T18:38:00.834Z,8.60
2019-03-13T18:40:29.618Z,8.30
2019-03-13T18:43:00.202Z,8.20
2019-03-13T18:45:35.373Z,8.20
2019-03-13T18:48:04.510Z,8.20
2019-03-13T18:50:34.331Z,8.30
2019-03-13T18:53:04.081Z,8.20
2019-03-13T18:55:36.658Z,8.20
2019-03-13T18:58:05.479Z,8.20
2019-03-13T19:00:37.581Z,8.30
2019-03-13T19:03:09.936Z,8.30
2019-03-13T19:05:42.307Z,8.30
2019-03-13T19:08:12.385Z,8.30
2019-03-13T19:10:42.027Z,8.30
2019-03-13T19:13:12.026Z,8.30
2019-03-13T19:15:40.971Z,8.30
2019-03-13T19:18:10.189Z,8.40
2019-03-13T19:20:39.982Z,8.30
2019-03-13T19:23:10.340Z,8.30
2019-03-13T19:25:40.276Z,8.30
2019-03-13T19:28:10.009Z,8.30
2019-03-13T19:30:40.896Z,8.30
2019-03-13T19:33:09.577Z,8.40
2019-03-13T19:35:40.821Z,8.40
2019-03-13T19:38:16.154Z,8.40
2019-03-13T19:40:45.350Z,8.30
2019-03-13T19:43:13.972Z,8.30
2019-03-13T19:45:48.048Z,8.30
2019-03-13T19:48:18.474Z,8.30
2019-03-13T19:50:47.256Z,8.30
2019-03-13T19:53:15.864Z,8.40
2019-03-13T19:55:45.702Z,8.40
2019-03-13T19:58:15.988Z,8.30
2019-03-13T20:00:45.747Z,8.40
2019-03-13T20:03:18.408Z,8.40
2019-03-13T20:05:48.036Z,8.40
2019-03-13T20:08:17.801Z,8.40
2019-03-13T20:10:46.622Z,8.40
2019-03-13T20:13:17.469Z,8.40
2019-03-13T20:15:48.643Z,8.40
2019-03-13T20:18:17.366Z,8.40
2019-03-13T20:20:46.073Z,8.50
2019-03-13T20:23:16.695Z,8.40
2019-03-13T20:25:45.349Z,8.50
2019-03-13T20:28:13.961Z,8.50
2019-03-13T20:30:42.689Z,8.50
2019-03-13T20:33:11.468Z,8.50
2019-03-13T20:35:40.135Z,8.50
2019-03-13T20:38:08.739Z,8.50
2019-03-13T20:40:37.345Z,8.50
2019-03-13T20:43:06.197Z,8.50
2019-03-13T20:45:34.896Z,8.50
2019-03-13T20:48:03.766Z,8.40
2019-03-13T20:50:37.365Z,8.40
2019-03-13T20:53:03.235Z,8.40
2019-03-13T20:55:31.962Z,8.40
2019-03-13T20:58:00.573Z,8.30
2019-03-13T21:00:29.495Z,8.30
2019-03-13T21:02:58.477Z,8.40
2019-03-13T21:05:27.453Z,8.30
2019-03-13T21:07:56.714Z,8.40
2019-03-13T21:10:25.440Z,8.30
2019-03-13T21:12:54.049Z,8.40
2019-03-13T21:15:27.246Z,8.40
2019-03-13T21:17:56.112Z,8.30
2019-03-13T21:20:24.908Z,8.30
2019-03-13T21:22:53.779Z,8.30
2019-03-13T21:25:25.093Z,8.30
2019-03-13T21:27:53.840Z,8.20
2019-03-13T21:30:27.544Z,8.20
2019-03-13T21:32:56.748Z,8.20
2019-03-13T21:35:25.419Z,8.20
2019-03-13T21:37:54.302Z,8.10
2019-03-13T21:40:26.947Z,8.10
2019-03-13T21:42:55.816Z,8.10
2019-03-13T21:45:24.820Z,8.10
2019-03-13T21:47:53.547Z,8.00
2019-03-13T21:50:22.442Z,7.90
2019-03-13T21:52:51.173Z,7.90
2019-03-13T21:55:20.150Z,7.90
2019-03-13T21:57:51.557Z,7.90
2019-03-13T22:00:24.827Z,7.90
2019-03-13T22:02:53.708Z,7.90
2019-03-13T22:05:26.275Z,7.90
2019-03-13T22:07:53.137Z,7.90
2019-03-13T22:10:22.095Z,7.90
2019-03-13T22:12:51.571Z,7.80
2019-03-13T22:15:22.086Z,7.60
2019-03-13T22:17:50.755Z,7.50
2019-03-13T22:20:19.869Z,7.30
2019-03-13T22:22:48.672Z,7.20
2019-03-13T22:25:18.916Z,7.10
2019-03-13T22:27:47.709Z,7.00
2019-03-13T22:30:24.741Z,6.90
2019-03-13T22:32:53.493Z,6.80
2019-03-13T22:35:22.277Z,6.70
2019-03-13T22:37:50.951Z,6.70
2019-03-13T22:40:19.890Z,6.70
2019-03-13T22:42:48.840Z,6.70
2019-03-13T22:45:19.291Z,6.70
2019-03-13T22:47:47.964Z,6.60
2019-03-13T22:50:23.489Z,6.60
2019-03-13T22:52:52.338Z,6.50
2019-03-13T22:55:21.063Z,6.60
2019-03-13T22:57:49.840Z,6.60
2019-03-13T23:00:32.241Z,6.60
2019-03-13T23:03:00.848Z,6.50
2019-03-13T23:05:29.504Z,6.60
2019-03-13T23:07:58.180Z,6.50
2019-03-13T23:10:33.536Z,6.50
2019-03-13T23:13:02.191Z,6.50
2019-03-13T23:15:31.013Z,6.50
2019-03-13T23:17:59.702Z,6.50
2019-03-13T23:20:28.304Z,6.40
2019-03-13T23:22:57.828Z,6.50
2019-03-13T23:25:26.508Z,6.40
2019-03-13T23:27:55.262Z,6.40
2019-03-13T23:30:23.861Z,6.40
2019-03-13T23:32:52.687Z,6.40
2019-03-13T23:35:21.295Z,6.40
2019-03-13T23:37:49.942Z,6.40
2019-03-13T23:40:18.620Z,6.40
2019-03-13T23:42:47.272Z,6.40
2019-03-13T23:45:15.877Z,6.40
2019-03-13T23:47:44.531Z,6.40
2019-03-13T23:50:16.279Z,6.40
2019-03-13T23:52:44.954Z,6.40
2019-03-13T23:55:13.763Z,6.40
2019-03-13T23:57:42.364Z,6.50
